createdAt,value
2023-03-02T11:03:17.953Z,2.40
2023-03-02T11:08:19.265Z,7.30
2023-03-02T11:23:46.006Z,7.70
2023-03-02T11:26:22.712Z,9.30
2023-03-02T11:36:51.442Z,10.20
2023-03-02T11:51:58.915Z,11.30
2023-03-02T11:54:36.655Z,11.40
2023-03-02T11:57:04.812Z,11.60
2023-03-02T11:59:34.036Z,12.00
2023-03-02T12:02:01.555Z,12.20
2023-03-02T12:04:33.975Z,11.40
2023-03-02T12:07:15.647Z,12.20
2023-03-02T12:09:42.909Z,12.20
2023-03-02T12:14:57.228Z,12.90
2023-03-02T12:17:27.051Z,13.00
2023-03-02T12:20:09.037Z,12.90
2023-03-02T12:22:37.523Z,14.00
2023-03-02T12:25:23.932Z,13.00
2023-03-02T12:58:28.649Z,13.10
2023-03-02T13:03:26.510Z,13.90
2023-03-02T13:06:10.815Z,14.50
2023-03-02T13:08:38.937Z,14.40
2023-03-02T13:11:06.128Z,14.10
2023-03-02T13:13:32.990Z,14.30
2023-03-02T13:16:19.140Z,13.70
2023-03-02T13:18:47.104Z,13.90
2023-03-02T13:21:14.977Z,14.80
2023-03-02T13:23:51.803Z,14.20
2023-03-02T13:26:30.906Z,15.80
2023-03-02T13:29:23.121Z,15.20
2023-03-02T13:31:50.214Z,16.10
2023-03-02T13:34:33.177Z,14.60
2023-03-02T13:36:59.992Z,15.20
2023-03-02T13:39:30.456Z,15.50
2023-03-02T13:42:02.358Z,15.90
2023-03-02T13:44:34.032Z,15.60
2023-03-02T13:47:02.091Z,15.50
2023-03-02T13:49:35.296Z,14.80
2023-03-02T13:52:08.412Z,14.80
2023-03-02T13:54:40.893Z,14.80
2023-03-02T13:57:15.119Z,15.60
2023-03-02T13:59:42.209Z,15.50
2023-03-02T14:02:25.444Z,15.80
2023-03-02T14:04:52.585Z,15.70
2023-03-02T14:07:20.721Z,15.50
2023-03-02T14:09:48.348Z,15.40
2023-03-02T14:12:28.642Z,14.70
2023-03-02T14:14:59.795Z,14.80
2023-03-02T14:17:26.913Z,15.00
2023-03-02T14:19:55.184Z,14.90
2023-03-02T14:22:23.759Z,14.80
2023-03-02T14:24:51.242Z,14.40
2023-03-02T14:27:18.911Z,15.90
2023-03-02T14:29:46.715Z,15.60
2023-03-02T14:32:15.150Z,15.40
2023-03-02T14:34:42.538Z,15.50
2023-03-02T14:37:18.137Z,14.40
2023-03-02T14:39:55.632Z,15.50
2023-03-02T14:42:23.257Z,15.20
2023-03-02T14:44:51.094Z,13.70
2023-03-02T14:47:19.523Z,14.10
2023-03-02T14:49:46.806Z,14.30
2023-03-02T14:52:42.541Z,13.80
2023-03-02T14:55:28.312Z,13.50
2023-03-02T14:58:04.931Z,12.30
2023-03-02T15:00:31.975Z,12.20
2023-03-02T15:02:59.882Z,12.20
2023-03-02T15:05:26.797Z,12.00
2023-03-02T15:07:58.808Z,11.90
2023-03-02T15:10:25.862Z,12.30
2023-03-02T15:12:52.723Z,13.60
2023-03-02T15:15:19.538Z,12.90
2023-03-02T15:17:46.309Z,12.20
2023-03-02T15:20:15.674Z,12.20
2023-03-02T15:22:42.594Z,12.40
2023-03-02T15:25:09.941Z,12.70
2023-03-02T15:27:36.693Z,13.00
2023-03-02T15:30:04.693Z,12.80
2023-03-02T15:32:31.508Z,12.30
2023-03-02T15:34:58.356Z,12.90
2023-03-02T15:37:25.104Z,12.90
2023-03-02T15:39:55.834Z,12.00
2023-03-02T15:42:24.010Z,11.90
2023-03-02T15:44:51.701Z,11.80
2023-03-02T15:47:18.585Z,12.10
2023-03-02T15:49:45.425Z,12.10
2023-03-02T15:52:12.954Z,12.00
2023-03-02T15:54:40.670Z,12.30
2023-03-02T15:57:07.714Z,11.70
2023-03-02T15:59:34.893Z,11.70
2023-03-02T16:02:02.525Z,11.60
2023-03-02T16:04:31.795Z,11.50
2023-03-02T16:06:59.137Z,11.70
2023-03-02T16:09:28.870Z,11.40
2023-03-02T16:11:56.211Z,11.30
2023-03-02T16:14:26.292Z,11.40
2023-03-02T16:16:53.314Z,11.20
2023-03-02T16:19:21.152Z,11.00
2023-03-02T16:31:40.777Z,10.50
2023-03-02T16:34:09.711Z,10.40
2023-03-02T19:01:55.943Z,8.60
2023-03-02T19:04:26.377Z,6.50
2023-03-02T19:06:56.050Z,6.40
2023-03-02T19:09:23.564Z,6.40
2023-03-02T19:48:44.394Z,6.30
2023-03-02T20:01:16.735Z,5.30
2023-03-02T20:13:35.770Z,5.00
2023-03-02T20:28:23.572Z,4.80
2023-03-02T20:30:56.723Z,4.40
2023-03-02T20:33:34.345Z,4.60
2023-03-02T20:36:03.058Z,4.50
2023-03-02T20:38:37.968Z,4.40
2023-03-02T20:41:06.531Z,4.40
2023-03-02T20:43:33.618Z,4.40
2023-03-02T20:46:00.665Z,4.20
2023-03-02T20:48:28.168Z,4.30
2023-03-02T20:50:55.346Z,4.50
2023-03-02T20:53:23.073Z,4.30
